Time;durP1;ratioP1;P1;durP2;ratioP2;P2;SDS_P1;SDS_P2;PMS_P1;PMS_P2;Temp;Humidity;BMP_temperature;BMP_pressure;BME280_temperature;BME280_humidity;BME280_pressure;Samples;Min_cycle;Max_cycle;Signal;HPM_P1;HPM_P2
2024/03/08 00:02:03;;;;;;;32.17;13.80;;;4.20;99.90;;;;;;4996950;28;20058;-96
2024/03/08 00:04:29;;;;;;;32.75;12.93;;;4.20;99.90;;;;;;4996709;28;20046;-94
2024/03/08 00:06:55;;;;;;;33.38;14.38;;;4.20;99.90;;;;;;4998550;28;20085;-95
2024/03/08 00:09:21;;;;;;;28.98;12.57;;;4.20;99.90;;;;;;4997959;28;20033;-94
2024/03/08 00:11:48;;;;;;;37.05;15.07;;;4.20;99.90;;;;;;5003391;28;20031;-92
2024/03/08 00:14:14;;;;;;;31.15;14.43;;;4.20;99.90;;;;;;5009092;28;20030;-93
2024/03/08 00:16:43;;;;;;;37.63;16.10;;;4.20;99.90;;;;;;4998358;28;20046;-93
2024/03/08 00:19:09;;;;;;;34.45;14.50;;;4.20;99.90;;;;;;5010779;28;20027;-92
2024/03/08 00:21:35;;;;;;;39.30;16.02;;;4.20;99.90;;;;;;5017400;28;20007;-92
2024/03/08 00:24:01;;;;;;;40.00;17.33;;;4.20;99.90;;;;;;5018531;28;20042;-92
2024/03/08 00:26:27;;;;;;;42.08;15.60;;;4.20;99.90;;;;;;5017018;28;20028;-92
2024/03/08 00:28:53;;;;;;;35.22;15.27;;;4.20;99.90;;;;;;5014558;28;20027;-92
2024/03/08 00:31:20;;;;;;;36.75;15.82;;;4.20;99.90;;;;;;5015191;28;20018;-93
2024/03/08 00:33:46;;;;;;;36.65;15.82;;;4.20;99.90;;;;;;5007460;28;20094;-92
2024/03/08 00:36:11;;;;;;;44.13;17.38;;;4.20;99.90;;;;;;5016974;28;20034;-92
2024/03/08 00:38:37;;;;;;;40.28;17.40;;;4.20;99.90;;;;;;5005279;28;20046;-94
2024/03/08 00:41:03;;;;;;;45.05;17.35;;;4.20;99.90;;;;;;4997844;28;20018;-95
2024/03/08 00:43:30;;;;;;;42.58;17.38;;;4.30;99.90;;;;;;4996897;28;20105;-95
2024/03/08 00:45:56;;;;;;;36.53;16.50;;;4.30;99.90;;;;;;4996328;28;20061;-96
2024/03/08 00:48:21;;;;;;;45.20;16.77;;;4.40;99.90;;;;;;4997004;28;20026;-94
2024/03/08 00:50:48;;;;;;;48.25;17.95;;;4.40;99.90;;;;;;4996989;28;20545;-94
2024/03/08 00:53:13;;;;;;;44.25;17.77;;;4.50;99.90;;;;;;4995960;28;20026;-95
2024/03/08 00:55:39;;;;;;;38.67;15.95;;;4.50;99.90;;;;;;4996734;28;20030;-95
2024/03/08 00:58:05;;;;;;;45.17;17.80;;;4.40;99.90;;;;;;4995881;28;20022;-93
2024/03/08 01:00:31;;;;;;;43.88;18.48;;;4.40;99.90;;;;;;4994659;28;20423;-94
2024/03/08 01:02:56;;;;;;;38.85;17.60;;;4.40;99.90;;;;;;4997892;28;20029;-94
2024/03/08 01:05:24;;;;;;;43.80;19.02;;;4.40;99.90;;;;;;4997996;28;20037;-95
2024/03/08 01:07:51;;;;;;;51.30;20.15;;;4.40;99.90;;;;;;5015508;28;20060;-94
2024/03/08 01:10:17;;;;;;;45.40;19.85;;;4.40;99.90;;;;;;4996753;28;20017;-95
2024/03/08 01:12:45;;;;;;;41.38;19.20;;;4.30;99.90;;;;;;4998137;28;20069;-92
2024/03/08 01:15:11;;;;;;;47.00;19.70;;;4.30;99.90;;;;;;4997857;28;20085;-93
2024/03/08 01:17:37;;;;;;;49.15;20.55;;;4.30;99.90;;;;;;4998048;28;20050;-92
2024/03/08 01:20:04;;;;;;;47.35;20.73;;;4.30;99.90;;;;;;4997521;28;20022;-93
2024/03/08 01:22:29;;;;;;;48.05;20.55;;;4.30;99.90;;;;;;4998462;28;20058;-94
2024/03/08 01:24:59;;;;;;;50.50;20.63;;;4.30;99.90;;;;;;4998119;28;20037;-95
2024/03/08 01:27:24;;;;;;;44.75;19.60;;;4.30;99.90;;;;;;5016328;28;20456;-94
2024/03/08 01:29:50;;;;;;;55.75;21.33;;;4.30;99.90;;;;;;5002673;28;20026;-94
2024/03/08 01:32:16;;;;;;;49.70;21.50;;;4.30;99.90;;;;;;5006641;28;20044;-95
2024/03/08 01:34:42;;;;;;;50.42;22.10;;;4.30;99.90;;;;;;5024877;28;20042;-93
2024/03/08 01:37:07;;;;;;;48.67;20.13;;;4.30;99.90;;;;;;5005684;28;20017;-95
2024/03/08 01:39:33;;;;;;;50.53;21.15;;;4.30;99.90;;;;;;5002601;28;20051;-95
2024/03/08 01:42:00;;;;;;;50.75;20.08;;;4.40;99.90;;;;;;5000186;28;20778;-95
2024/03/08 01:44:26;;;;;;;50.67;21.02;;;4.30;99.90;;;;;;5002278;28;20034;-93
2024/03/08 01:46:53;;;;;;;53.88;20.60;;;4.30;99.90;;;;;;5018911;28;20120;-94
2024/03/08 01:49:21;;;;;;;47.20;18.13;;;4.40;99.90;;;;;;4998662;28;20018;-94
2024/03/08 01:51:48;;;;;;;49.45;21.20;;;4.30;99.90;;;;;;5013247;28;20101;-93
2024/03/08 01:54:16;;;;;;;46.17;19.00;;;4.40;99.90;;;;;;4997869;28;20046;-93
2024/03/08 01:56:42;;;;;;;48.13;19.08;;;4.30;99.90;;;;;;4997572;28;20022;-94
2024/03/08 01:59:09;;;;;;;54.50;21.63;;;4.30;99.90;;;;;;4998361;28;20079;-95
2024/03/08 02:01:35;;;;;;;49.17;22.20;;;4.40;99.90;;;;;;4998218;28;20018;-94
2024/03/08 02:04:01;;;;;;;51.83;23.10;;;4.40;99.90;;;;;;4997336;28;20045;-93
2024/03/08 02:06:27;;;;;;;52.25;22.10;;;4.40;99.90;;;;;;4996606;28;20474;-94
2024/03/08 02:08:53;;;;;;;52.70;20.90;;;4.40;99.90;;;;;;4999274;28;20137;-94
2024/03/08 02:11:20;;;;;;;48.30;20.42;;;4.40;99.90;;;;;;5005585;28;20057;-92
2024/03/08 02:13:46;;;;;;;50.10;19.40;;;4.40;99.90;;;;;;5006008;28;20037;-93
2024/03/08 02:16:12;;;;;;;52.33;21.45;;;4.40;99.90;;;;;;5003699;28;20475;-93
2024/03/08 02:18:39;;;;;;;53.13;21.67;;;4.40;99.90;;;;;;5005068;28;20014;-93
2024/03/08 02:21:06;;;;;;;63.70;23.13;;;4.40;99.90;;;;;;5023332;28;20029;-94
2024/03/08 02:23:32;;;;;;;53.65;22.70;;;4.50;99.90;;;;;;4999491;28;20045;-94
2024/03/08 02:25:58;;;;;;;56.28;22.17;;;4.40;99.90;;;;;;5020298;28;20030;-93
2024/03/08 02:28:25;;;;;;;45.83;19.88;;;4.50;99.90;;;;;;5006197;28;20082;-94
2024/03/08 02:30:51;;;;;;;45.78;20.65;;;4.50;99.90;;;;;;4998119;28;20121;-94
2024/03/08 02:33:18;;;;;;;55.17;20.92;;;4.50;99.90;;;;;;5014958;28;20105;-95
2024/03/08 02:35:47;;;;;;;42.78;20.05;;;4.50;99.90;;;;;;5015161;28;20105;-95
2024/03/08 02:38:18;;;;;;;51.45;20.92;;;4.50;99.90;;;;;;5015052;28;20022;-93
2024/03/08 02:40:45;;;;;;;58.00;21.30;;;4.50;99.90;;;;;;5014679;28;20475;-93
2024/03/08 02:43:12;;;;;;;57.75;20.95;;;4.50;99.90;;;;;;4995999;28;20030;-95
2024/03/08 02:45:38;;;;;;;49.97;20.33;;;4.50;99.90;;;;;;4996842;28;20092;-95
2024/03/08 02:48:06;;;;;;;46.72;20.40;;;4.50;99.90;;;;;;4996543;28;20506;-94
2024/03/08 02:50:32;;;;;;;51.28;21.60;;;4.50;99.90;;;;;;4996916;28;20368;-94
2024/03/08 02:52:58;;;;;;;46.35;20.45;;;4.50;99.90;;;;;;4996826;28;20046;-94
2024/03/08 02:55:25;;;;;;;50.00;19.65;;;4.50;99.90;;;;;;5013837;28;20053;-95
2024/03/08 02:57:52;;;;;;;54.58;21.48;;;4.50;99.90;;;;;;4996489;28;20018;-93
2024/03/08 03:00:19;;;;;;;49.72;20.00;;;4.50;99.90;;;;;;4996260;28;20092;-93
2024/03/08 03:02:45;;;;;;;46.85;18.60;;;4.50;99.90;;;;;;4996606;28;20479;-93
2024/03/08 03:05:11;;;;;;;50.72;21.10;;;4.60;99.90;;;;;;5010591;28;20483;-94
2024/03/08 03:07:37;;;;;;;50.25;21.10;;;4.60;99.90;;;;;;4996626;28;20018;-92
2024/03/08 03:10:04;;;;;;;50.60;21.35;;;4.50;99.90;;;;;;4995983;28;20022;-93
2024/03/08 03:12:31;;;;;;;44.35;20.52;;;4.60;99.90;;;;;;5013974;28;20022;-94
2024/03/08 03:14:57;;;;;;;54.42;20.67;;;4.60;99.90;;;;;;4997793;28;20022;-92
2024/03/08 03:17:26;;;;;;;47.03;20.10;;;4.60;99.90;;;;;;5004958;28;20040;-94
2024/03/08 03:19:52;;;;;;;51.92;20.73;;;4.60;99.90;;;;;;4996628;28;20026;-94
2024/03/08 03:22:21;;;;;;;54.42;19.88;;;4.60;99.90;;;;;;4996782;28;20116;-92
2024/03/08 03:24:47;;;;;;;49.30;21.95;;;4.60;99.90;;;;;;4993432;28;20117;-93
2024/03/08 03:27:15;;;;;;;57.63;22.38;;;4.50;99.90;;;;;;4996754;28;20041;-94
2024/03/08 03:29:45;;;;;;;47.40;20.05;;;4.60;99.90;;;;;;4996539;28;20030;-95
2024/03/08 03:32:14;;;;;;;56.20;20.42;;;4.60;99.90;;;;;;4994291;28;20022;-94
2024/03/08 03:34:40;;;;;;;44.30;19.27;;;4.60;99.90;;;;;;4999214;28;20025;-93
2024/03/08 03:37:12;;;;;;;54.95;20.17;;;4.60;99.90;;;;;;5000336;28;20033;-93
2024/03/08 03:39:52;;;;;;;51.38;20.23;;;4.60;99.90;;;;;;5000846;28;20167;-94
2024/03/08 03:42:19;;;;;;;51.40;20.88;;;4.60;99.90;;;;;;4998694;28;20033;-94
2024/03/08 03:44:48;;;;;;;52.60;21.15;;;4.60;99.90;;;;;;4999607;28;20038;-92
2024/03/08 03:47:17;;;;;;;53.97;22.42;;;4.60;99.90;;;;;;4999900;28;20021;-94
2024/03/08 03:49:43;;;;;;;58.03;23.38;;;4.60;99.90;;;;;;4999745;28;20116;-93
2024/03/08 03:52:10;;;;;;;56.50;22.58;;;4.60;99.90;;;;;;5017660;28;20475;-93
2024/03/08 03:54:35;;;;;;;54.75;22.92;;;4.60;99.90;;;;;;5000907;28;20026;-96
2024/03/08 03:57:02;;;;;;;50.47;21.85;;;4.60;99.90;;;;;;5000974;28;20030;-93
2024/03/08 03:59:28;;;;;;;53.72;22.30;;;4.60;99.90;;;;;;5001274;28;20442;-93
2024/03/08 04:01:54;;;;;;;62.75;23.48;;;4.60;99.90;;;;;;5009208;28;20049;-93
2024/03/08 04:04:20;;;;;;;58.35;23.00;;;4.60;99.90;;;;;;5011087;28;20391;-92
2024/03/08 04:06:46;;;;;;;53.55;22.98;;;4.60;99.90;;;;;;5010173;28;20028;-93
2024/03/08 04:09:12;;;;;;;54.50;23.90;;;4.70;99.90;;;;;;5004720;28;20018;-92
2024/03/08 04:11:38;;;;;;;56.40;22.90;;;4.70;99.90;;;;;;4999328;28;20030;-94
2024/03/08 04:14:05;;;;;;;61.03;24.50;;;4.60;99.90;;;;;;4999185;28;20032;-94
2024/03/08 04:16:31;;;;;;;54.35;20.85;;;4.70;99.90;;;;;;4998698;28;20022;-92
2024/03/08 04:18:57;;;;;;;55.13;22.05;;;4.70;99.90;;;;;;4998870;28;20196;-93
2024/03/08 04:21:23;;;;;;;59.90;23.25;;;4.60;99.90;;;;;;4998787;28;20057;-92
2024/03/08 04:23:48;;;;;;;61.58;24.13;;;4.70;99.90;;;;;;4999133;28;20390;-93
2024/03/08 04:26:14;;;;;;;57.42;23.55;;;4.70;99.90;;;;;;4999223;28;20022;-92
2024/03/08 04:28:40;;;;;;;55.35;23.38;;;4.70;99.90;;;;;;4998879;28;20026;-94
2024/03/08 04:31:06;;;;;;;58.95;24.52;;;4.70;99.90;;;;;;5001754;28;20533;-93
2024/03/08 04:33:32;;;;;;;54.88;22.02;;;4.70;99.90;;;;;;4997943;28;20186;-93
2024/03/08 04:35:58;;;;;;;57.10;24.92;;;4.80;99.90;;;;;;4998343;28;20099;-92
2024/03/08 04:38:24;;;;;;;55.35;23.83;;;4.80;99.90;;;;;;4999744;28;20033;-94
2024/03/08 04:40:51;;;;;;;57.47;21.25;;;4.80;99.90;;;;;;5003272;28;20028;-93
2024/03/08 04:43:18;;;;;;;59.75;24.88;;;4.80;99.90;;;;;;5003361;28;20018;-94
2024/03/08 04:45:44;;;;;;;61.08;24.58;;;4.80;99.90;;;;;;5004722;28;20061;-92
2024/03/08 04:48:11;;;;;;;66.22;22.52;;;4.80;99.90;;;;;;4999843;28;20029;-94
2024/03/08 04:50:38;;;;;;;60.30;25.88;;;4.80;99.90;;;;;;5003813;28;20026;-93
2024/03/08 04:53:04;;;;;;;63.80;26.65;;;4.80;99.90;;;;;;4998998;28;20030;-93
2024/03/08 04:55:30;;;;;;;69.22;26.58;;;4.80;99.90;;;;;;4999020;28;20061;-93
2024/03/08 04:57:55;;;;;;;57.40;24.27;;;4.70;99.90;;;;;;5001627;28;20041;-93
2024/03/08 05:00:21;;;;;;;60.83;23.95;;;4.70;99.90;;;;;;5021839;28;20042;-93
2024/03/08 05:02:47;;;;;;;62.92;24.38;;;4.80;99.90;;;;;;5006810;28;20112;-91
2024/03/08 05:05:12;;;;;;;69.43;25.85;;;4.70;99.90;;;;;;5026433;28;20026;-92
2024/03/08 05:07:43;;;;;;;55.80;24.13;;;4.70;99.90;;;;;;5008521;28;20112;-92
2024/03/08 05:10:09;;;;;;;;;;;4.70;99.90;;;;;;5004347;28;20034;-92
2024/03/08 05:12:34;;;;;;;63.50;23.15;;;4.70;99.90;;;;;;5005350;28;20013;-93
2024/03/08 05:15:00;;;;;;;65.43;24.95;;;4.70;99.90;;;;;;5007821;28;20022;-91
2024/03/08 05:17:25;;;;;;;64.93;23.33;;;4.70;99.90;;;;;;5010376;28;20029;-92
2024/03/08 05:19:51;;;;;;;57.85;23.90;;;4.70;99.90;;;;;;5011766;28;20296;-91
2024/03/08 05:22:18;;;;;;;56.85;24.08;;;4.70;99.90;;;;;;5015175;28;20030;-91
2024/03/08 05:24:44;;;;;;;65.18;25.55;;;4.80;99.90;;;;;;5012071;28;20030;-93
2024/03/08 05:27:10;;;;;;;56.65;23.02;;;4.70;99.90;;;;;;5004582;28;20026;-93
2024/03/08 05:29:36;;;;;;;59.92;24.45;;;4.70;99.90;;;;;;4998373;28;20046;-93
2024/03/08 05:32:03;;;;;;;60.17;23.98;;;4.70;99.90;;;;;;4998339;28;20041;-92
2024/03/08 05:34:29;;;;;;;59.67;24.88;;;4.70;99.90;;;;;;4995221;28;20491;-94
2024/03/08 05:36:55;;;;;;;65.75;26.38;;;4.70;99.90;;;;;;4997792;28;20048;-92
2024/03/08 05:39:21;;;;;;;61.28;24.88;;;4.70;99.90;;;;;;4998216;28;20030;-92
2024/03/08 05:41:47;;;;;;;67.75;25.55;;;4.80;99.90;;;;;;4997202;28;20026;-94
2024/03/08 05:44:13;;;;;;;60.85;24.77;;;4.70;99.90;;;;;;4997289;28;20037;-92
2024/03/08 05:46:39;;;;;;;62.42;25.17;;;4.70;99.90;;;;;;4997634;28;20026;-94
2024/03/08 05:49:06;;;;;;;71.90;26.63;;;4.70;99.90;;;;;;4996332;28;20096;-93
2024/03/08 05:51:36;;;;;;;66.85;27.42;;;4.70;99.90;;;;;;5013931;28;20499;-93
2024/03/08 05:54:03;;;;;;;60.45;26.52;;;4.70;99.90;;;;;;4996377;28;20152;-94
2024/03/08 05:56:29;;;;;;;60.47;26.77;;;4.70;99.90;;;;;;4996728;28;20065;-94
2024/03/08 05:58:55;;;;;;;65.72;26.17;;;4.70;99.90;;;;;;4997383;28;20022;-94
2024/03/08 06:01:21;;;;;;;75.28;26.88;;;4.70;99.90;;;;;;4997206;28;20120;-93
2024/03/08 06:03:48;;;;;;;68.35;26.65;;;4.70;99.90;;;;;;4997048;28;20042;-94
2024/03/08 06:06:17;;;;;;;65.85;27.83;;;4.70;99.90;;;;;;5015155;28;20034;-95
2024/03/08 06:08:43;;;;;;;69.47;26.30;;;4.70;99.90;;;;;;4997181;28;20041;-93
2024/03/08 06:11:09;;;;;;;67.60;27.20;;;4.70;99.90;;;;;;4997588;28;20093;-94
2024/03/08 06:13:35;;;;;;;70.97;26.30;;;4.70;99.90;;;;;;4997749;28;20032;-92
2024/03/08 06:16:04;;;;;;;67.53;27.15;;;4.70;99.90;;;;;;4998518;28;20103;-94
2024/03/08 06:18:31;;;;;;;64.75;27.27;;;4.70;99.90;;;;;;5022066;28;20117;-92
2024/03/08 06:20:57;;;;;;;69.90;26.83;;;4.70;99.90;;;;;;5001628;28;20080;-93
2024/03/08 06:23:23;;;;;;;70.55;26.23;;;4.70;99.90;;;;;;5002390;28;20030;-93
2024/03/08 06:25:48;;;;;;;72.63;26.80;;;4.70;99.90;;;;;;4997341;28;20049;-94
2024/03/08 06:28:14;;;;;;;69.38;28.52;;;4.70;99.90;;;;;;5001689;28;20030;-92
2024/03/08 06:30:40;;;;;;;70.25;28.15;;;4.70;99.90;;;;;;4996936;28;20013;-95
2024/03/08 06:33:07;;;;;;;70.65;27.08;;;4.70;99.90;;;;;;5014186;28;20080;-93
2024/03/08 06:35:32;;;;;;;66.95;27.08;;;4.70;99.90;;;;;;4994192;28;20018;-93
2024/03/08 06:38:01;;;;;;;66.10;27.40;;;4.70;99.90;;;;;;4997196;28;20022;-92
2024/03/08 06:40:27;;;;;;;66.97;26.67;;;4.70;99.90;;;;;;4997417;28;20120;-94
2024/03/08 06:42:52;;;;;;;76.45;29.25;;;4.70;99.90;;;;;;5018252;28;20045;-94
2024/03/08 06:45:20;;;;;;;72.35;29.42;;;4.70;99.90;;;;;;4997051;28;20041;-92
2024/03/08 06:47:47;;;;;;;75.25;28.92;;;4.70;99.90;;;;;;4996801;28;20048;-92
2024/03/08 06:50:15;;;;;;;76.03;30.77;;;4.70;99.90;;;;;;5013317;28;20026;-92
2024/03/08 06:52:42;;;;;;;70.78;27.85;;;4.70;99.90;;;;;;4993029;28;20036;-92
2024/03/08 06:55:11;;;;;;;70.90;29.13;;;4.70;99.90;;;;;;4992346;28;20026;-92
2024/03/08 06:57:40;;;;;;;73.13;27.85;;;4.70;99.90;;;;;;4996528;28;20025;-91
2024/03/08 07:00:09;;;;;;;79.18;29.52;;;4.70;99.90;;;;;;4994004;28;20029;-95
2024/03/08 07:02:35;;;;;;;83.45;29.90;;;4.70;99.90;;;;;;5018929;28;20022;-93
2024/03/08 07:05:02;;;;;;;77.93;29.02;;;4.70;99.90;;;;;;5017366;28;20046;-92
2024/03/08 07:07:30;;;;;;;85.25;30.05;;;4.70;99.90;;;;;;5014599;28;20046;-93
2024/03/08 07:09:56;;;;;;;69.55;26.90;;;4.70;99.90;;;;;;5001907;28;20033;-92
2024/03/08 07:12:23;;;;;;;70.53;27.75;;;4.70;99.90;;;;;;5002978;28;20018;-95
2024/03/08 07:14:49;;;;;;;73.95;29.00;;;4.70;99.90;;;;;;5001594;28;20022;-93
2024/03/08 07:17:16;;;;;;;72.75;29.70;;;4.70;99.90;;;;;;5006751;28;20030;-94
2024/03/08 07:19:42;;;;;;;75.50;28.08;;;4.70;99.90;;;;;;5000201;28;20033;-94
2024/03/08 07:22:11;;;;;;;65.93;27.10;;;4.70;99.90;;;;;;5007063;28;20030;-92
2024/03/08 07:27:04;;;;;;;77.43;29.98;;;4.70;99.90;;;;;;5021144;28;20044;-96
2024/03/08 07:29:31;;;;;;;78.80;29.80;;;4.70;99.90;;;;;;5000669;28;20053;-93
2024/03/08 07:34:39;;;;;;;71.80;27.85;;;4.70;99.90;;;;;;5027180;28;20024;-94
2024/03/08 07:37:10;;;;;;;82.13;29.35;;;4.70;99.90;;;;;;5006072;28;20061;-93
2024/03/08 07:39:39;;;;;;;77.35;29.88;;;4.70;99.90;;;;;;4993842;28;20106;-96
2024/03/08 07:42:05;;;;;;;62.22;23.95;;;4.70;99.90;;;;;;5009268;28;20029;-94
2024/03/08 07:44:32;;;;;;;75.85;28.60;;;4.70;99.90;;;;;;5005766;28;20038;-94
2024/03/08 07:46:58;;;;;;;72.90;28.55;;;4.70;99.90;;;;;;4998457;28;20029;-95
2024/03/08 07:49:24;;;;;;;66.50;24.20;;;4.70;99.90;;;;;;5008746;28;20029;-94
2024/03/08 07:51:53;;;;;;;78.93;28.25;;;4.70;99.90;;;;;;5016424;28;20026;-91
2024/03/08 07:54:18;;;;;;;68.60;25.60;;;4.70;99.90;;;;;;5001904;28;20026;-93
2024/03/08 07:56:44;;;;;;;72.03;28.20;;;4.70;99.90;;;;;;4998178;28;20153;-93
2024/03/08 07:59:11;;;;;;;76.88;29.27;;;4.70;99.90;;;;;;4998596;28;20053;-94
2024/03/08 08:01:37;;;;;;;68.80;27.90;;;4.80;99.90;;;;;;5000551;28;20033;-95
2024/03/08 08:04:03;;;;;;;75.20;28.42;;;4.70;99.90;;;;;;5016797;28;20042;-94
2024/03/08 08:06:33;;;;;;;73.88;27.17;;;4.80;99.90;;;;;;5000033;28;20124;-94
2024/03/08 08:08:59;;;;;;;72.72;29.02;;;4.80;99.90;;;;;;5000728;28;20044;-93
2024/03/08 08:11:28;;;;;;;73.63;28.88;;;4.80;99.90;;;;;;5010636;28;20033;-93
2024/03/08 08:13:54;;;;;;;60.40;25.38;;;4.80;99.90;;;;;;5005711;28;20022;-93
2024/03/08 08:16:22;;;;;;;66.20;26.60;;;4.80;99.90;;;;;;5023586;28;20080;-94
2024/03/08 08:18:48;;;;;;;77.15;30.50;;;4.80;99.90;;;;;;5000239;28;20430;-92
2024/03/08 08:21:14;;;;;;;65.85;27.70;;;4.80;99.90;;;;;;5002851;28;20056;-93
2024/03/08 08:23:40;;;;;;;65.47;26.75;;;4.80;99.90;;;;;;5017318;28;20076;-96
2024/03/08 08:26:07;;;;;;;72.43;25.83;;;4.90;99.90;;;;;;5000742;28;20084;-93
2024/03/08 08:28:33;;;;;;;63.15;25.08;;;4.90;99.90;;;;;;5003919;28;20022;-94
2024/03/08 08:30:59;;;;;;;67.60;26.85;;;4.90;99.90;;;;;;5007294;28;20053;-93
2024/03/08 08:33:25;;;;;;;69.18;27.33;;;4.90;99.90;;;;;;5010078;28;20022;-93
2024/03/08 08:35:53;;;;;;;71.22;27.45;;;4.90;99.90;;;;;;5002858;28;20032;-95
2024/03/08 08:38:20;;;;;;;60.75;23.40;;;4.90;99.90;;;;;;5009475;28;20049;-92
2024/03/08 08:40:47;;;;;;;67.97;26.90;;;4.90;99.90;;;;;;5007231;28;20022;-95
2024/03/08 08:43:13;;;;;;;59.50;24.98;;;5.00;99.90;;;;;;5002889;28;20021;-91
2024/03/08 08:45:39;;;;;;;72.80;26.10;;;4.90;99.90;;;;;;5004067;28;20034;-94
2024/03/08 08:48:06;;;;;;;65.70;25.23;;;5.00;99.90;;;;;;5003221;28;20030;-93
2024/03/08 08:50:32;;;;;;;62.30;26.15;;;5.00;99.90;;;;;;4999598;28;20029;-93
2024/03/08 08:52:58;;;;;;;71.07;25.55;;;5.00;99.90;;;;;;5015898;28;20034;-93
2024/03/08 08:55:26;;;;;;;70.68;25.98;;;5.00;99.90;;;;;;5000494;28;20021;-93
2024/03/08 08:57:53;;;;;;;65.93;26.83;;;5.00;99.90;;;;;;5000189;28;20022;-93
2024/03/08 09:00:23;;;;;;;53.90;21.67;;;5.00;99.90;;;;;;4999824;28;20030;-93
2024/03/08 09:02:50;;;;;;;;;;;5.00;99.90;;;;;;4998715;28;20454;-95
2024/03/08 09:05:16;;;;;;;70.43;24.42;;;5.00;99.90;;;;;;4999890;28;19921;-94
2024/03/08 09:07:45;;;;;;;60.78;25.10;;;5.00;99.90;;;;;;5016584;28;20014;-94
2024/03/08 09:10:12;;;;;;;60.03;24.05;;;5.10;99.90;;;;;;5014119;28;20042;-95
2024/03/08 09:12:39;;;;;;;69.20;24.23;;;5.10;99.90;;;;;;4997607;28;20032;-94
2024/03/08 09:15:11;;;;;;;62.42;24.42;;;5.10;99.90;;;;;;5020176;28;20086;-91
2024/03/08 09:17:39;;;;;;;64.15;24.50;;;5.10;99.90;;;;;;5010752;28;20018;-92
2024/03/08 09:20:07;;;;;;;59.50;23.88;;;5.20;99.90;;;;;;5013918;28;20056;-95
2024/03/08 09:22:33;;;;;;;65.50;24.98;;;5.20;99.90;;;;;;5014594;28;20022;-95
2024/03/08 09:24:58;;;;;;;62.53;26.38;;;5.20;99.90;;;;;;4999608;28;20096;-91
2024/03/08 09:27:24;;;;;;;55.72;23.42;;;5.20;99.90;;;;;;5002313;28;20018;-94
2024/03/08 09:29:50;;;;;;;56.25;23.35;;;5.30;99.90;;;;;;5006973;28;20014;-96
2024/03/08 09:32:16;;;;;;;56.83;23.98;;;5.30;99.90;;;;;;5001944;28;20822;-95
2024/03/08 09:34:42;;;;;;;61.58;24.05;;;5.30;99.90;;;;;;5000003;28;20018;-94
2024/03/08 09:37:08;;;;;;;55.85;23.08;;;5.40;99.90;;;;;;4997181;28;20038;-96
2024/03/08 09:39:34;;;;;;;56.85;22.25;;;5.50;99.90;;;;;;4998537;28;20121;-94
2024/03/08 09:42:03;;;;;;;63.08;22.80;;;5.50;99.90;;;;;;5019210;28;20053;-92
2024/03/08 09:44:29;;;;;;;55.35;23.08;;;5.50;99.90;;;;;;4999107;28;20034;-94
2024/03/08 09:46:55;;;;;;;50.08;21.98;;;5.60;99.90;;;;;;5012652;28;20028;-91
2024/03/08 09:49:21;;;;;;;47.70;21.70;;;5.60;99.90;;;;;;4998290;28;20061;-94
2024/03/08 09:51:47;;;;;;;52.00;21.58;;;5.70;99.90;;;;;;4995837;28;20030;-94
2024/03/08 09:54:13;;;;;;;47.00;21.58;;;5.70;99.90;;;;;;4998332;28;20029;-96
2024/03/08 09:56:46;;;;;;;52.88;22.08;;;5.80;99.90;;;;;;5001229;28;20021;-93
2024/03/08 10:01:40;;;;;;;50.05;21.90;;;5.80;99.90;;;;;;5013962;28;20033;-93
2024/03/08 10:04:07;;;;;;;52.60;22.90;;;5.90;99.90;;;;;;5020915;28;20037;-95
2024/03/08 10:06:32;;;;;;;52.58;22.30;;;5.90;99.90;;;;;;5008313;28;20072;-92
2024/03/08 10:08:58;;;;;;;48.35;20.48;;;5.90;99.90;;;;;;5011389;28;20077;-91
2024/03/08 10:11:27;;;;;;;53.08;21.70;;;5.90;99.90;;;;;;5029618;28;20056;-93
2024/03/08 10:13:53;;;;;;;51.95;22.30;;;6.00;99.90;;;;;;5012200;28;20041;-92
2024/03/08 10:16:18;;;;;;;58.50;22.05;;;6.00;99.90;;;;;;5006882;28;20022;-93
2024/03/08 10:18:47;;;;;;;44.83;18.55;;;6.00;99.90;;;;;;5004143;28;20081;-93
2024/03/08 10:21:15;;;;;;;57.60;22.88;;;6.00;99.90;;;;;;5003078;28;20014;-92
2024/03/08 10:23:43;;;;;;;59.13;21.63;;;6.00;99.90;;;;;;4998562;28;20026;-94
2024/03/08 10:26:20;;;;;;;44.47;20.98;;;6.00;99.90;;;;;;4994198;28;20037;-93
2024/03/08 10:28:47;;;;;;;48.58;21.38;;;6.00;99.90;;;;;;4992077;28;20037;-92
2024/03/08 10:31:15;;;;;;;46.95;20.65;;;6.00;99.90;;;;;;4995065;28;20026;-95
2024/03/08 10:33:41;;;;;;;44.38;19.98;;;6.00;99.90;;;;;;4994188;28;20018;-94
2024/03/08 10:36:12;;;;;;;47.50;20.58;;;6.00;99.90;;;;;;4995906;28;20558;-90
2024/03/08 10:38:41;;;;;;;42.17;19.90;;;6.00;99.90;;;;;;4995787;28;20475;-91
2024/03/08 10:41:16;;;;;;;51.03;20.67;;;6.00;99.90;;;;;;4993866;28;20017;-92
2024/03/08 10:44:12;;;;;;;43.25;19.33;;;6.00;99.90;;;;;;4991569;28;20471;-92
2024/03/08 10:46:47;;;;;;;43.45;19.38;;;6.00;99.90;;;;;;4998836;28;20057;-94
2024/03/08 10:49:23;;;;;;;44.72;18.75;;;6.00;99.90;;;;;;4999155;28;20030;-93
2024/03/08 10:51:51;;;;;;;41.15;17.60;;;6.00;99.90;;;;;;4996222;28;20018;-93
2024/03/08 10:54:20;;;;;;;44.00;20.35;;;6.00;99.90;;;;;;4995257;28;20273;-91
2024/03/08 10:56:48;;;;;;;49.65;20.40;;;6.10;99.90;;;;;;4993620;28;20022;-92
2024/03/08 10:59:14;;;;;;;48.42;21.00;;;6.10;99.90;;;;;;4994183;28;20022;-93
2024/03/08 11:01:40;;;;;;;44.83;19.67;;;6.20;99.90;;;;;;5000649;28;20026;-91
2024/03/08 11:04:06;;;;;;;54.92;20.48;;;6.20;99.90;;;;;;5004136;28;20050;-92
2024/03/08 11:06:45;;;;;;;38.85;18.38;;;6.30;99.90;;;;;;5001798;28;20041;-92
2024/03/08 11:09:35;;;;;;;44.28;19.65;;;6.30;99.90;;;;;;5000268;28;20113;-92
2024/03/08 11:12:29;;;;;;;46.17;17.30;;;6.20;99.90;;;;;;4998584;28;20030;-94
2024/03/08 11:15:09;;;;;;;44.42;20.67;;;6.20;99.90;;;;;;5012981;28;20030;-93
2024/03/08 11:17:37;;;;;;;48.67;19.27;;;6.20;99.90;;;;;;4997966;28;20021;-93
2024/03/08 11:20:17;;;;;;;42.80;19.05;;;6.20;99.90;;;;;;4996116;28;20022;-94
2024/03/08 11:22:54;;;;;;;53.78;19.73;;;6.20;99.90;;;;;;4995166;28;20026;-93
2024/03/08 11:25:39;;;;;;;42.70;19.23;;;6.20;99.90;;;;;;5016127;28;20049;-93
2024/03/08 11:28:19;;;;;;;45.78;19.88;;;6.20;99.90;;;;;;5012020;28;20045;-93
2024/03/08 11:31:24;;;;;;;45.85;19.77;;;6.30;99.90;;;;;;4993246;28;20126;-93
2024/03/08 11:33:52;;;;;;;41.50;18.63;;;6.20;99.90;;;;;;5010594;28;20022;-92
2024/03/08 11:36:24;;;;;;;46.30;19.60;;;6.20;99.90;;;;;;4996101;28;20050;-93
2024/03/08 11:38:55;;;;;;;42.03;20.38;;;6.30;99.90;;;;;;4995615;28;20032;-94
2024/03/08 11:41:25;;;;;;;44.75;19.05;;;6.30;99.90;;;;;;4993957;28;20025;-94
2024/03/08 11:44:05;;;;;;;41.30;20.08;;;6.30;99.90;;;;;;4996003;28;20069;-93
2024/03/08 11:46:32;;;;;;;43.53;20.42;;;6.30;99.90;;;;;;4996299;28;20030;-94
2024/03/08 11:48:58;;;;;;;38.80;18.05;;;6.30;99.90;;;;;;4999661;28;20056;-93
2024/03/08 11:51:23;;;;;;;45.95;19.23;;;6.30;99.90;;;;;;4998411;28;20062;-93
2024/03/08 11:53:52;;;;;;;36.55;18.25;;;6.30;99.90;;;;;;5016845;28;20053;-95
2024/03/08 11:56:21;;;;;;;50.25;19.63;;;6.30;99.90;;;;;;5012408;28;20017;-93
2024/03/08 11:58:58;;;;;;;41.15;20.10;;;6.30;99.90;;;;;;5020131;28;20033;-90
2024/03/08 12:01:24;;;;;;;42.45;17.85;;;6.30;99.90;;;;;;5020948;28;20021;-89
2024/03/08 12:03:54;;;;;;;44.22;19.15;;;6.40;99.90;;;;;;5020344;28;20053;-89
2024/03/08 12:06:20;;;;;;;;;;;6.40;99.90;;;;;;5020770;28;20068;-91
2024/03/08 12:08:50;;;;;;;42.00;19.83;;;6.40;99.90;;;;;;5014941;28;20366;-92
2024/03/08 12:11:22;;;;;;;46.53;19.55;;;6.50;99.90;;;;;;5019022;28;20093;-93
2024/03/08 12:13:51;;;;;;;46.80;19.50;;;6.70;99.90;;;;;;5017201;28;20026;-93
2024/03/08 12:16:23;;;;;;;41.63;18.73;;;7.00;99.90;;;;;;5014232;28;20036;-93
2024/03/08 12:18:53;;;;;;;46.22;21.00;;;7.30;99.90;;;;;;5034423;28;20030;-93
2024/03/08 12:21:23;;;;;;;43.33;19.13;;;7.50;99.90;;;;;;5029332;28;20045;-94
2024/03/08 12:24:02;;;;;;;43.70;19.15;;;7.60;99.90;;;;;;5010497;28;20089;-92
2024/03/08 12:26:29;;;;;;;47.17;19.67;;;7.60;99.90;;;;;;5036768;28;20029;-91
2024/03/08 12:29:27;;;;;;;43.70;20.10;;;7.60;99.90;;;;;;5019975;28;20030;-92
2024/03/08 12:32:00;;;;;;;40.78;20.35;;;7.50;99.90;;;;;;5020163;28;20002;-92
2024/03/08 12:34:31;;;;;;;38.47;18.27;;;7.30;99.90;;;;;;5018463;28;20026;-92
2024/03/08 12:36:58;;;;;;;36.25;18.63;;;7.30;99.90;;;;;;5037191;28;20095;-89
2024/03/08 12:39:26;;;;;;;41.20;19.42;;;7.40;99.90;;;;;;5015193;28;20069;-93
2024/03/08 12:41:59;;;;;;;46.10;20.45;;;7.40;99.90;;;;;;5013838;28;20099;-95
2024/03/08 12:44:33;;;;;;;37.75;18.65;;;7.50;99.90;;;;;;5016603;28;20034;-92
2024/03/08 12:46:59;;;;;;;42.42;20.13;;;7.60;99.90;;;;;;4998566;28;20034;-94
2024/03/08 12:49:26;;;;;;;37.40;18.15;;;7.60;99.90;;;;;;5031682;28;20021;-90